createdAt,value
2018-02-02T00:00:23.094Z,21.04
2018-02-02T00:02:50.330Z,21.04
2018-02-02T00:05:17.589Z,21.08
2018-02-02T00:07:44.817Z,21.08
2018-02-02T00:10:12.056Z,21.11
2018-02-02T00:12:39.289Z,21.12
2018-02-02T00:15:06.518Z,21.10
2018-02-02T00:17:33.785Z,21.11
2018-02-02T00:20:01.027Z,21.16
2018-02-02T00:22:28.257Z,21.14
2018-02-02T00:24:55.490Z,21.14
2018-02-02T00:27:22.754Z,21.22
2018-02-02T00:29:49.978Z,21.18
2018-02-02T00:32:17.211Z,21.19
2018-02-02T00:34:44.452Z,21.19
2018-02-02T00:37:11.682Z,21.25
2018-02-02T00:39:38.933Z,21.27
2018-02-02T00:42:06.164Z,21.26
2018-02-02T00:44:33.410Z,21.29
2018-02-02T00:47:00.638Z,21.38
2018-02-02T00:49:27.871Z,21.35
2018-02-02T00:52:03.810Z,21.33
2018-02-02T00:54:31.374Z,21.31
2018-02-02T00:56:58.597Z,21.38
2018-02-02T00:59:25.833Z,21.36
2018-02-02T01:01:53.059Z,21.35
2018-02-02T01:04:20.372Z,21.37
2018-02-02T01:06:47.629Z,21.36
2018-02-02T01:09:14.858Z,21.31
2018-02-02T01:11:42.093Z,21.35
2018-02-02T01:14:09.322Z,21.35
2018-02-02T01:16:36.554Z,21.35
2018-02-02T01:19:03.990Z,21.36
2018-02-02T01:21:31.230Z,21.40
2018-02-02T01:23:58.457Z,21.44
2018-02-02T01:26:25.695Z,21.41
2018-02-02T01:28:52.929Z,21.43
2018-02-02T01:31:20.249Z,21.42
2018-02-02T01:33:47.486Z,21.43
2018-02-02T01:36:14.718Z,21.42
2018-02-02T01:38:41.954Z,21.47
2018-02-02T01:41:09.182Z,21.46
2018-02-02T01:43:36.457Z,21.47
2018-02-02T01:46:03.686Z,21.46
2018-02-02T01:48:30.924Z,21.47
2018-02-02T01:50:58.255Z,21.49
2018-02-02T01:53:25.478Z,21.47
2018-02-02T01:55:52.718Z,21.48
2018-02-02T01:58:19.949Z,21.53
2018-02-02T02:00:47.186Z,21.55
2018-02-02T02:03:14.421Z,21.50
2018-02-02T02:05:41.659Z,21.46
2018-02-02T02:08:08.909Z,21.49
2018-02-02T02:10:36.142Z,21.52
2018-02-02T02:13:03.378Z,21.51
2018-02-02T02:15:30.616Z,21.53
2018-02-02T02:17:57.846Z,21.51
2018-02-02T02:20:25.098Z,21.57
2018-02-02T02:22:52.325Z,21.57
2018-02-02T02:25:19.559Z,21.54
2018-02-02T02:27:46.802Z,21.57
2018-02-02T02:30:14.032Z,21.55
2018-02-02T02:32:41.294Z,21.55
2018-02-02T02:35:08.519Z,21.49
2018-02-02T02:37:35.755Z,21.52
2018-02-02T02:40:03.015Z,21.53
2018-02-02T02:42:30.447Z,21.48
2018-02-02T02:44:57.678Z,21.58
2018-02-02T02:47:24.932Z,21.52
2018-02-02T02:49:52.163Z,21.58
2018-02-02T02:52:19.390Z,21.53
2018-02-02T02:54:46.654Z,21.63
2018-02-02T02:57:13.885Z,21.61
2018-02-02T02:59:41.128Z,21.60
2018-02-02T03:02:08.349Z,21.69
2018-02-02T03:04:35.590Z,21.59
2018-02-02T03:07:03.035Z,21.65
2018-02-02T03:09:30.343Z,21.58
2018-02-02T03:11:57.582Z,21.59
2018-02-02T03:14:24.813Z,21.55
2018-02-02T03:16:52.060Z,21.57
2018-02-02T03:19:19.318Z,21.66
2018-02-02T03:21:46.548Z,21.65
2018-02-02T03:24:13.777Z,21.72
2018-02-02T03:26:41.015Z,21.69
2018-02-02T03:29:08.237Z,21.67
2018-02-02T03:31:35.506Z,21.69
2018-02-02T03:34:02.743Z,21.68
2018-02-02T03:36:29.969Z,21.77
2018-02-02T03:38:57.209Z,21.76
2018-02-02T03:41:24.429Z,21.65
2018-02-02T03:43:52.570Z,21.64
2018-02-02T03:46:19.797Z,21.68
2018-02-02T03:48:47.031Z,21.65
2018-02-02T03:51:14.266Z,21.62
2018-02-02T03:53:41.504Z,21.65
2018-02-02T03:56:08.759Z,21.61
2018-02-02T03:58:35.990Z,21.70
2018-02-02T04:01:03.228Z,21.67
2018-02-02T04:03:30.467Z,21.70
2018-02-02T04:05:57.694Z,21.68
2018-02-02T04:08:24.954Z,21.75
2018-02-02T04:10:52.176Z,21.70
2018-02-02T04:13:19.410Z,21.68
2018-02-02T04:15:46.641Z,21.69
2018-02-02T04:18:13.874Z,21.71
2018-02-02T04:20:41.130Z,21.70
2018-02-02T04:23:08.399Z,21.74
2018-02-02T04:25:35.630Z,21.78
2018-02-02T04:28:03.209Z,21.73
2018-02-02T04:30:30.474Z,21.70
2018-02-02T04:32:57.702Z,21.70
2018-02-02T04:38:22.983Z,21.81
2018-02-02T04:40:50.394Z,21.75
2018-02-02T04:43:17.625Z,21.75
2018-02-02T04:45:44.854Z,21.79
2018-02-02T04:48:12.078Z,21.72
2018-02-02T04:50:39.316Z,21.76
2018-02-02T04:53:06.582Z,21.80
2018-02-02T04:55:33.814Z,21.81
2018-02-02T04:58:01.039Z,21.77
2018-02-02T05:00:28.272Z,21.81
2018-02-02T05:02:55.502Z,21.87
2018-02-02T05:05:23.025Z,21.74
2018-02-02T05:07:50.261Z,21.73
2018-02-02T05:10:17.505Z,21.75
2018-02-02T05:12:44.739Z,21.80
2018-02-02T05:15:11.967Z,21.78
2018-02-02T05:17:39.230Z,21.78
2018-02-02T05:20:06.462Z,21.74
2018-02-02T05:22:33.781Z,21.76
2018-02-02T05:25:01.015Z,21.77
2018-02-02T05:27:28.242Z,21.77
2018-02-02T05:29:55.492Z,21.79
2018-02-02T05:32:22.722Z,21.70
2018-02-02T05:34:49.981Z,21.79
2018-02-02T05:37:17.218Z,21.75
2018-02-02T05:39:44.454Z,21.82
2018-02-02T05:42:11.725Z,21.83
2018-02-02T05:44:38.952Z,21.86
2018-02-02T05:47:06.182Z,21.83
2018-02-02T05:49:33.411Z,21.74
2018-02-02T05:52:00.650Z,21.75
2018-02-02T05:54:27.910Z,21.73
2018-02-02T05:56:55.146Z,21.76
2018-02-02T05:59:22.380Z,21.72
2018-02-02T06:01:49.601Z,21.79
2018-02-02T06:04:16.854Z,21.80
2018-02-02T06:06:44.302Z,21.74
2018-02-02T06:09:11.546Z,21.85
2018-02-02T06:11:38.784Z,21.82
2018-02-02T06:14:06.014Z,21.78
2018-02-02T06:16:33.254Z,21.81
2018-02-02T06:19:00.497Z,21.80
2018-02-02T06:21:27.728Z,21.78
2018-02-02T06:23:54.963Z,21.73
2018-02-02T06:26:22.189Z,21.87
2018-02-02T06:28:49.430Z,21.83
2018-02-02T06:31:16.697Z,21.75
2018-02-02T06:33:43.929Z,21.78
2018-02-02T06:36:11.161Z,21.73
2018-02-02T06:38:38.400Z,21.79
2018-02-02T06:41:05.633Z,21.77
2018-02-02T06:43:32.912Z,21.77
2018-02-02T06:46:00.142Z,21.84
2018-02-02T06:51:01.203Z,21.80
2018-02-02T06:53:28.434Z,21.79
2018-02-02T06:55:55.795Z,21.76
2018-02-02T06:58:23.026Z,21.80
2018-02-02T07:00:50.262Z,21.80
2018-02-02T07:03:17.490Z,21.77
2018-02-02T07:05:44.730Z,21.78
2018-02-02T07:08:11.981Z,21.81
2018-02-02T07:10:39.218Z,21.81
2018-02-02T07:13:06.629Z,21.85
2018-02-02T07:15:33.862Z,21.84
2018-02-02T07:18:01.108Z,21.91
2018-02-02T07:20:28.342Z,21.87
2018-02-02T07:22:55.570Z,21.90
2018-02-02T07:25:22.804Z,21.80
2018-02-02T07:27:50.038Z,21.76
2018-02-02T07:30:17.274Z,21.81
2018-02-02T07:32:44.518Z,21.84
2018-02-02T07:35:11.757Z,21.85
2018-02-02T07:37:39.002Z,21.83
2018-02-02T07:40:06.274Z,21.74
2018-02-02T07:42:34.842Z,21.80
2018-02-02T07:45:02.802Z,21.89
2018-02-02T07:47:30.481Z,21.89
2018-02-02T07:49:57.850Z,21.93
2018-02-02T07:52:25.371Z,21.98
2018-02-02T07:54:52.609Z,21.87
2018-02-02T07:57:19.857Z,21.90
2018-02-02T07:59:47.122Z,21.85
2018-02-02T08:02:14.368Z,21.88
2018-02-02T08:04:41.602Z,21.90
2018-02-02T08:07:08.843Z,21.86
2018-02-02T08:09:36.082Z,21.91
2018-02-02T08:12:03.361Z,21.91
2018-02-02T08:14:30.609Z,21.52
2018-02-02T08:16:57.850Z,20.98
2018-02-02T08:19:25.511Z,20.76
2018-02-02T08:21:53.038Z,20.62
2018-02-02T08:24:20.362Z,20.42
2018-02-02T08:26:47.689Z,20.38
2018-02-02T08:29:14.954Z,20.22
2018-02-02T08:31:42.194Z,20.07
2018-02-02T08:34:09.432Z,19.95
2018-02-02T08:36:36.965Z,19.90
2018-02-02T08:39:04.525Z,19.85
2018-02-02T08:41:32.649Z,19.79
2018-02-02T08:44:00.086Z,19.68
2018-02-02T08:46:27.819Z,19.70
2018-02-02T08:48:55.106Z,19.62
2018-02-02T08:51:22.342Z,19.53
2018-02-02T08:53:49.677Z,19.62
2018-02-02T08:56:16.949Z,19.53
2018-02-02T08:58:44.438Z,19.45
2018-02-02T09:01:17.289Z,19.41
2018-02-02T09:03:44.723Z,19.38
2018-02-02T09:06:12.077Z,19.38
2018-02-02T09:08:39.355Z,19.41
2018-02-02T09:11:06.582Z,19.36
2018-02-02T09:13:33.817Z,19.46
2018-02-02T09:16:01.047Z,19.39
2018-02-02T09:18:28.506Z,19.34
2018-02-02T09:20:55.747Z,19.34
2018-02-02T09:23:22.983Z,19.30
2018-02-02T09:25:50.207Z,19.33
2018-02-02T09:28:18.242Z,19.31
2018-02-02T09:30:45.503Z,19.21
2018-02-02T09:33:12.729Z,19.19
2018-02-02T09:35:39.954Z,19.22
2018-02-02T09:38:07.190Z,19.23
2018-02-02T09:40:34.498Z,19.21
2018-02-02T09:43:02.117Z,19.15
2018-02-02T09:45:29.353Z,19.15
2018-02-02T09:47:56.588Z,19.11
2018-02-02T09:50:23.822Z,19.12
2018-02-02T09:52:51.054Z,19.14
2018-02-02T09:55:18.302Z,19.14
2018-02-02T09:57:45.534Z,19.03
2018-02-02T10:00:12.758Z,19.03
2018-02-02T10:02:40.014Z,19.05
2018-02-02T10:05:07.244Z,19.05
2018-02-02T10:07:34.474Z,18.99
2018-02-02T10:10:01.719Z,19.16
2018-02-02T10:12:29.054Z,19.07
2018-02-02T10:14:56.290Z,19.22
2018-02-02T10:17:23.518Z,19.06
2018-02-02T10:19:50.774Z,19.05
2018-02-02T10:22:18.026Z,19.07
2018-02-02T10:24:45.262Z,18.97
2018-02-02T10:27:12.498Z,19.07
2018-02-02T10:29:39.735Z,18.96
2018-02-02T10:32:06.978Z,18.94
2018-02-02T10:34:34.230Z,18.94
2018-02-02T10:37:01.758Z,19.03
2018-02-02T10:39:29.029Z,19.00
2018-02-02T10:41:56.260Z,18.94
2018-02-02T10:44:23.842Z,18.91
2018-02-02T10:46:51.079Z,18.81
2018-02-02T10:49:18.306Z,18.86
2018-02-02T10:51:45.525Z,18.86
2018-02-02T10:54:12.759Z,18.85
2018-02-02T10:56:40.014Z,18.80
2018-02-02T10:59:07.233Z,18.79
2018-02-02T11:01:36.298Z,18.73
2018-02-02T11:04:09.014Z,18.78
2018-02-02T11:06:36.244Z,18.75
2018-02-02T11:09:03.625Z,18.77
2018-02-02T11:11:30.858Z,18.73
2018-02-02T11:13:58.094Z,18.76
2018-02-02T11:16:25.318Z,18.75
2018-02-02T11:18:52.546Z,18.76
2018-02-02T11:21:19.779Z,18.72
2018-02-02T11:23:46.998Z,18.66
2018-02-02T11:26:14.230Z,18.68
2018-02-02T11:28:41.482Z,18.75
2018-02-02T11:31:08.706Z,18.79
2018-02-02T11:33:35.929Z,18.74
2018-02-02T11:36:03.198Z,18.77
2018-02-02T11:38:30.430Z,18.71
2018-02-02T11:40:57.686Z,18.70
2018-02-02T11:43:24.914Z,18.75
2018-02-02T11:45:52.187Z,18.74
2018-02-02T11:48:19.418Z,18.77
2018-02-02T11:50:46.670Z,18.80
2018-02-02T11:53:14.105Z,18.82
2018-02-02T11:55:41.347Z,18.75
2018-02-02T11:58:08.678Z,18.78
2018-02-02T12:00:35.911Z,18.76
2018-02-02T12:03:03.151Z,18.68
2018-02-02T12:05:30.405Z,18.72
2018-02-02T12:07:57.639Z,18.78
2018-02-02T12:10:24.870Z,18.74
2018-02-02T12:12:52.102Z,18.79
2018-02-02T12:15:19.333Z,18.79
2018-02-02T12:17:46.566Z,18.76
2018-02-02T12:20:13.806Z,18.77
2018-02-02T12:25:53.506Z,18.75
2018-02-02T12:28:38.770Z,18.78
2018-02-02T12:31:11.694Z,18.85
2018-02-02T12:33:42.521Z,18.69
2018-02-02T12:36:12.241Z,18.70
2018-02-02T12:38:39.507Z,18.79
2018-02-02T12:41:06.738Z,18.78
2018-02-02T12:43:33.976Z,18.75
2018-02-02T12:46:01.218Z,18.79
2018-02-02T12:48:40.405Z,18.77
2018-02-02T12:51:15.585Z,18.74
2018-02-02T12:53:42.818Z,18.79
2018-02-02T12:56:10.709Z,18.83
2018-02-02T12:58:38.022Z,18.87
2018-02-02T13:01:05.525Z,18.75
2018-02-02T13:03:33.072Z,18.78
2018-02-02T13:06:00.392Z,18.81
2018-02-02T13:08:27.674Z,18.90
2018-02-02T13:10:54.914Z,18.96
2018-02-02T13:13:22.162Z,18.89
2018-02-02T13:15:49.406Z,18.88
2018-02-02T13:18:16.906Z,18.86
2018-02-02T13:20:44.382Z,18.96
2018-02-02T13:23:11.840Z,19.00
2018-02-02T13:25:39.218Z,18.91
2018-02-02T13:28:06.467Z,18.91
2018-02-02T13:30:33.730Z,18.94
2018-02-02T13:33:00.958Z,18.92
2018-02-02T13:35:28.197Z,18.97
2018-02-02T13:37:55.421Z,18.96
2018-02-02T13:40:22.652Z,18.94
2018-02-02T13:42:49.913Z,19.01
2018-02-02T13:45:17.407Z,19.05
2018-02-02T13:47:44.625Z,19.09
2018-02-02T13:50:11.858Z,18.97
2018-02-02T13:52:39.096Z,18.93
2018-02-02T13:55:06.327Z,18.91
2018-02-02T13:57:33.554Z,18.90
2018-02-02T14:00:00.795Z,18.94
2018-02-02T14:02:28.850Z,18.90
2018-02-02T14:04:56.950Z,18.92
2018-02-02T14:07:24.277Z,18.79
2018-02-02T14:09:51.506Z,18.86
2018-02-02T14:12:18.784Z,18.87
2018-02-02T14:14:46.006Z,18.81
2018-02-02T14:17:13.519Z,18.80
2018-02-02T14:19:40.754Z,18.73
2018-02-02T14:22:07.983Z,18.78
2018-02-02T14:24:35.205Z,18.75
2018-02-02T14:27:02.444Z,18.79
2018-02-02T14:29:29.930Z,18.81
2018-02-02T14:31:57.163Z,18.79
2018-02-02T14:34:24.390Z,18.86
2018-02-02T14:36:51.617Z,18.81
2018-02-02T14:39:18.856Z,18.83
2018-02-02T14:41:46.205Z,18.78
2018-02-02T14:44:13.442Z,18.73
2018-02-02T14:46:40.678Z,18.67
2018-02-02T14:49:07.914Z,18.66
2018-02-02T14:51:35.142Z,18.72
2018-02-02T14:54:02.891Z,18.74
2018-02-02T14:56:30.128Z,18.78
2018-02-02T14:58:57.359Z,18.76
2018-02-02T15:01:24.589Z,18.76
2018-02-02T15:03:51.818Z,18.77
2018-02-02T15:06:19.338Z,18.81
2018-02-02T15:08:46.583Z,18.78
2018-02-02T15:11:13.809Z,18.81
2018-02-02T15:13:41.043Z,18.83
2018-02-02T15:16:08.277Z,18.77
2018-02-02T15:18:35.506Z,18.90
2018-02-02T15:21:02.767Z,18.86
2018-02-02T15:23:30.980Z,18.86
2018-02-02T15:25:58.286Z,18.74
2018-02-02T15:28:25.518Z,18.69
2018-02-02T15:30:52.759Z,18.68
2018-02-02T15:33:19.998Z,18.64
2018-02-02T15:35:47.250Z,18.63
2018-02-02T15:38:14.483Z,18.62
2018-02-02T15:40:43.501Z,18.57
2018-02-02T15:43:10.789Z,18.59
2018-02-02T15:45:38.054Z,18.52
2018-02-02T15:48:05.290Z,18.62
2018-02-02T15:50:32.526Z,18.56
2018-02-02T15:52:59.758Z,18.52
2018-02-02T15:55:26.978Z,18.54
2018-02-02T15:57:54.206Z,18.52
2018-02-02T16:00:21.433Z,18.44
2018-02-02T16:02:48.667Z,18.48
2018-02-02T16:05:15.911Z,18.41
2018-02-02T16:07:43.144Z,18.47
2018-02-02T16:10:10.378Z,18.41
2018-02-02T16:12:37.618Z,18.59
2018-02-02T16:15:04.949Z,18.60
2018-02-02T16:17:32.187Z,18.51
2018-02-02T16:19:59.421Z,18.54
2018-02-02T16:22:26.662Z,18.54
2018-02-02T16:24:53.898Z,18.60
2018-02-02T16:27:21.139Z,18.59
2018-02-02T16:29:48.370Z,18.74
2018-02-02T16:32:15.610Z,19.05
2018-02-02T16:34:43.186Z,19.22
2018-02-02T16:37:10.423Z,19.37
2018-02-02T16:39:37.646Z,19.50
2018-02-02T16:42:04.894Z,19.60
2018-02-02T16:44:32.134Z,19.66
2018-02-02T16:46:59.478Z,19.74
2018-02-02T16:49:26.707Z,19.80
2018-02-02T16:51:54.030Z,19.87
2018-02-02T16:54:21.257Z,19.93
2018-02-02T16:56:48.491Z,19.99
2018-02-02T16:59:15.737Z,20.07
2018-02-02T17:01:42.970Z,20.09
2018-02-02T17:04:10.202Z,20.15
2018-02-02T17:06:37.438Z,20.16
2018-02-02T17:09:04.663Z,20.21
2018-02-02T17:11:31.915Z,20.23
2018-02-02T17:13:59.152Z,20.25
2018-02-02T17:16:26.389Z,20.25
2018-02-02T17:18:53.618Z,20.29
2018-02-02T17:21:20.855Z,20.28
2018-02-02T17:23:48.432Z,20.30
2018-02-02T17:26:15.662Z,20.33
2018-02-02T17:28:42.977Z,20.36
2018-02-02T17:31:10.162Z,20.37
2018-02-02T17:33:37.397Z,20.38
2018-02-02T17:36:04.640Z,20.38
2018-02-02T17:38:31.869Z,20.39
2018-02-02T17:40:59.480Z,20.41
2018-02-02T17:43:26.746Z,20.41
2018-02-02T17:45:53.994Z,20.44
2018-02-02T17:48:21.269Z,20.46
2018-02-02T17:50:48.502Z,20.46
2018-02-02T17:53:15.738Z,20.46
2018-02-02T17:55:43.107Z,20.47
2018-02-02T17:58:10.379Z,20.51
2018-02-02T18:00:39.352Z,20.49
2018-02-02T18:03:21.463Z,20.49
2018-02-02T18:05:48.714Z,20.48
2018-02-02T18:08:15.942Z,20.49
2018-02-02T18:10:43.166Z,20.50
2018-02-02T18:13:10.406Z,20.51
2018-02-02T18:15:37.634Z,20.52
2018-02-02T18:18:04.871Z,20.54
2018-02-02T18:20:32.099Z,20.55
2018-02-02T18:22:59.568Z,20.53
2018-02-02T18:25:26.802Z,20.54
2018-02-02T18:27:54.035Z,20.57
2018-02-02T18:30:21.274Z,20.56
2018-02-02T18:32:48.506Z,20.55
2018-02-02T18:35:16.027Z,20.58
2018-02-02T18:37:43.260Z,20.56
2018-02-02T18:40:10.535Z,20.56
2018-02-02T18:42:37.955Z,20.60
2018-02-02T18:45:05.193Z,20.64
2018-02-02T18:47:32.648Z,20.60
2018-02-02T18:49:59.886Z,20.61
2018-02-02T18:52:27.132Z,20.63
2018-02-02T18:54:54.346Z,20.65
2018-02-02T18:57:21.575Z,20.64
2018-02-02T18:59:48.821Z,20.64
2018-02-02T19:02:16.050Z,20.66
2018-02-02T19:04:43.290Z,20.66
2018-02-02T19:07:10.526Z,20.68
2018-02-02T19:09:37.761Z,20.69
2018-02-02T19:12:05.013Z,20.67
2018-02-02T19:14:32.252Z,20.69
2018-02-02T19:16:59.483Z,20.68
2018-02-02T19:19:26.718Z,20.67
2018-02-02T19:21:53.946Z,20.66
2018-02-02T19:24:21.198Z,20.71
2018-02-02T19:26:48.434Z,20.67
2018-02-02T19:29:15.673Z,20.71
2018-02-02T19:31:42.902Z,20.73
2018-02-02T19:34:10.155Z,20.74
2018-02-02T19:36:37.400Z,20.73
2018-02-02T19:39:04.634Z,20.71
2018-02-02T19:41:31.907Z,20.71
2018-02-02T19:43:59.144Z,20.75
2018-02-02T19:46:26.374Z,20.74
2018-02-02T19:48:53.612Z,20.73
2018-02-02T19:51:20.851Z,20.73
2018-02-02T19:53:48.082Z,20.72
2018-02-02T19:56:15.317Z,20.74
2018-02-02T19:58:42.545Z,20.76
2018-02-02T20:01:09.782Z,20.76
2018-02-02T20:03:37.314Z,20.73
2018-02-02T20:06:04.542Z,20.78
2018-02-02T20:08:31.859Z,20.74
2018-02-02T20:10:59.079Z,20.78
2018-02-02T20:13:26.311Z,20.73
2018-02-02T20:15:53.579Z,20.76
2018-02-02T20:18:20.814Z,20.79
2018-02-02T20:20:48.050Z,20.78
2018-02-02T20:23:15.288Z,20.78
2018-02-02T20:25:42.522Z,20.78
2018-02-02T20:28:09.782Z,20.79
2018-02-02T20:30:37.011Z,20.80
2018-02-02T20:33:04.239Z,20.79
2018-02-02T20:35:31.483Z,20.78
2018-02-02T20:37:58.714Z,20.80
2018-02-02T20:40:26.002Z,20.81
2018-02-02T20:42:53.234Z,20.81
2018-02-02T20:45:20.466Z,20.80
2018-02-02T20:47:47.703Z,20.80
2018-02-02T20:50:14.932Z,20.80
2018-02-02T20:52:42.194Z,20.84
2018-02-02T20:55:09.427Z,20.81
2018-02-02T20:57:36.654Z,20.81
2018-02-02T21:00:03.898Z,20.80
2018-02-02T21:02:31.139Z,20.79
2018-02-02T21:04:58.410Z,20.82
2018-02-02T21:07:25.644Z,20.81
2018-02-02T21:09:52.874Z,20.81
2018-02-02T21:12:20.107Z,20.80
2018-02-02T21:14:47.334Z,20.85
2018-02-02T21:17:14.762Z,20.85
2018-02-02T21:19:42.045Z,20.82
2018-02-02T21:22:09.222Z,20.82
2018-02-02T21:24:36.455Z,20.83
2018-02-02T21:27:03.678Z,20.85
2018-02-02T21:29:30.956Z,20.90
2018-02-02T21:31:58.184Z,20.91
2018-02-02T21:34:25.419Z,20.90
2018-02-02T21:36:52.646Z,20.86
2018-02-02T21:39:19.875Z,20.86
2018-02-02T21:41:47.119Z,20.93
2018-02-02T21:44:14.350Z,20.98
2018-02-02T21:46:41.591Z,21.06
2018-02-02T21:49:08.818Z,20.98
2018-02-02T21:51:36.046Z,20.98
2018-02-02T21:54:03.282Z,20.93
2018-02-02T21:56:30.554Z,20.95
2018-02-02T21:58:57.790Z,20.96
2018-02-02T22:01:26.226Z,20.95
2018-02-02T22:03:54.821Z,20.98
2018-02-02T22:06:23.610Z,21.00
2018-02-02T22:08:51.941Z,20.98
2018-02-02T22:11:20.439Z,21.00
2018-02-02T22:13:47.730Z,21.03
2018-02-02T22:16:14.966Z,20.98
2018-02-02T22:18:42.217Z,20.97
2018-02-02T22:21:09.486Z,20.99
2018-02-02T22:23:36.722Z,21.03
2018-02-02T22:26:03.966Z,21.08
2018-02-02T22:28:31.206Z,21.13
2018-02-02T22:30:58.511Z,21.13
2018-02-02T22:33:25.867Z,21.08
2018-02-02T22:35:53.211Z,21.09
2018-02-02T22:38:20.503Z,21.08
2018-02-02T22:40:47.737Z,21.12
2018-02-02T22:43:15.030Z,21.07
2018-02-02T22:45:42.503Z,21.12
2018-02-02T22:48:09.746Z,21.09
2018-02-02T22:50:37.142Z,21.14
2018-02-02T22:53:04.399Z,21.15
2018-02-02T22:55:31.909Z,21.10
2018-02-02T22:57:59.389Z,21.15
2018-02-02T23:00:26.826Z,21.19
2018-02-02T23:02:54.112Z,21.24
2018-02-02T23:05:21.474Z,21.22
2018-02-02T23:07:49.030Z,21.22
2018-02-02T23:10:16.321Z,21.28
2018-02-02T23:12:43.554Z,21.30
2018-02-02T23:15:11.863Z,21.32
2018-02-02T23:17:39.114Z,21.29
2018-02-02T23:20:06.366Z,21.37
2018-02-02T23:22:33.943Z,21.33
2018-02-02T23:25:01.447Z,21.35
2018-02-02T23:27:28.686Z,21.29
2018-02-02T23:29:55.942Z,21.31
2018-02-02T23:32:23.178Z,21.30
2018-02-02T23:34:50.826Z,21.30
2018-02-02T23:37:18.166Z,21.29
2018-02-02T23:42:19.373Z,21.27
2018-02-02T23:44:46.875Z,21.27
2018-02-02T23:47:14.334Z,21.30
2018-02-02T23:49:41.784Z,21.30
2018-02-02T23:52:09.192Z,21.26
2018-02-02T23:54:36.483Z,21.27
2018-02-02T23:57:03.814Z,21.27
2018-02-02T23:59:31.132Z,21.27
